»·PEaware :: ASA1150 KSEA-KBZN

ASA1150 :: KSEA-KBZN

FLIGHT INFORMATION

Flight Status: Arrived
Operator:
Alaska Airlines
More flights by this operator :: More flights under this callsign
Pilot: Michael F. (26726)
Aircraft: BOEING 737-800
(B738)
More flights by this aircraft type
Origin: KSEA Seattle-Tacoma Intl
United States
Destination: KBZN Gallatin
United States
More flights between these airports :: More routes between these airports
Route: +SEA7 NORMY MODDA STEVS CPN THESE BZN
File this flight plan on PilotEdge
Remarks: RMK / SIMBRIEF
Altitude:
(Current/Filed)
37,000ft
Speed:
(Current/Filed)
459kts
Departed: 07-Nov-20 07:36 PM
Arrived: 07-Nov-20 08:51 PM
Distance/Time
Traveled:
470nm/1:15
Distance/Time
To Go:
Arrived

Flight Plot

Page will automatically refresh every two minutes.

Flight plan parsing failed; only flown route is shown


Map Options




Map Legend


Flown Route
Filed Route
Departure Airport
Arrival Airport
Navaid (VOR, NDB)
Fix

Horizontal Profiles

Position Reports

Time Latitude Longitude Heading Altitude Ground
Speed
07-Nov-20 19:06 47.446936 -122.304278 185 442ft 0kts
07-Nov-20 19:07 47.446936 -122.304278 185 442ft 0kts
07-Nov-20 19:08 47.446936 -122.304278 185 442ft 0kts
07-Nov-20 19:09 47.446936 -122.304278 185 442ft 0kts
07-Nov-20 19:10 47.446936 -122.304278 185 442ft 0kts
07-Nov-20 19:10 47.446936 -122.304278 185 442ft 0kts
07-Nov-20 19:11 47.446936 -122.304278 185 442ft 0kts
07-Nov-20 19:12 47.446936 -122.304278 185 442ft 0kts
07-Nov-20 19:13 47.446936 -122.304278 185 442ft 0kts
07-Nov-20 19:14 47.446936 -122.304278 185 442ft 0kts
07-Nov-20 19:15 47.446936 -122.304278 185 442ft 0kts
07-Nov-20 19:16 47.446936 -122.304278 185 442ft 0kts
07-Nov-20 19:17 47.446936 -122.304278 185 442ft 0kts
07-Nov-20 19:18 47.446936 -122.304278 185 442ft 0kts
07-Nov-20 19:19 47.446936 -122.304278 185 442ft 0kts
07-Nov-20 19:20 47.446936 -122.304278 185 442ft 0kts
07-Nov-20 19:21 47.446936 -122.304278 185 442ft 0kts
07-Nov-20 19:22 47.446936 -122.304278 185 442ft 0kts
07-Nov-20 19:23 47.446936 -122.304278 185 442ft 0kts
07-Nov-20 19:24 47.446944 -122.304277 185 442ft 0kts
07-Nov-20 19:25 47.447543 -122.303902 278 442ft 3kts
07-Nov-20 19:26 47.447422 -122.303603 306 442ft 0kts
07-Nov-20 19:27 47.447422 -122.303603 306 442ft 0kts
07-Nov-20 19:28 47.447422 -122.303604 306 442ft 0kts
07-Nov-20 19:29 47.447652 -122.304698 271 442ft 0kts
07-Nov-20 19:30 47.447355 -122.306262 190 442ft 12kts
07-Nov-20 19:31 47.442462 -122.306338 180 442ft 16kts
07-Nov-20 19:32 47.438369 -122.306386 179 442ft 15kts
07-Nov-20 19:33 47.434439 -122.305611 180 442ft 11kts
07-Nov-20 19:34 47.431739 -122.306904 268 442ft 8kts
07-Nov-20 19:35 47.437979 -122.308049 0 442ft 100kts
07-Nov-20 19:36 47.481676 -122.308260 356 2483ft 190kts
07-Nov-20 19:37 47.543937 -122.313533 357 5012ft 247kts
07-Nov-20 19:38 47.614026 -122.319999 358 8477ft 257kts
07-Nov-20 19:39 47.681860 -122.326279 358 9364ft 264kts
07-Nov-20 19:40 47.735671 -122.268745 91 11758ft 317kts
07-Nov-20 19:41 47.681165 -122.152687 128 13970ft 365kts
07-Nov-20 19:42 47.613322 -122.036769 128 16768ft 380kts
07-Nov-20 19:43 47.543334 -121.916143 129 19409ft 392kts
07-Nov-20 19:44 47.470630 -121.791391 130 21687ft 406kts
07-Nov-20 19:45 47.430139 -121.639618 90 23607ft 413kts
07-Nov-20 19:46 47.416731 -121.468776 103 25316ft 427kts
07-Nov-20 19:47 47.387008 -121.296437 104 26760ft 439kts
07-Nov-20 19:48 47.355364 -121.119983 105 28022ft 448kts
07-Nov-20 19:49 47.323027 -120.941283 106 29079ft 455kts
07-Nov-20 19:50 47.289814 -120.759537 106 29943ft 461kts
07-Nov-20 19:51 47.256050 -120.576599 107 30588ft 466kts
07-Nov-20 19:52 47.230931 -120.388990 101 31231ft 469kts
07-Nov-20 19:53 47.207943 -120.199788 101 31866ft 470kts
07-Nov-20 19:54 47.184597 -120.010408 101 32464ft 471kts
07-Nov-20 19:55 47.160960 -119.821210 102 33131ft 469kts
07-Nov-20 19:56 47.137058 -119.632519 102 33659ft 470kts
07-Nov-20 19:57 47.112770 -119.443547 102 34212ft 471kts
07-Nov-20 19:58 47.088166 -119.254526 102 34732ft 471kts
07-Nov-20 19:59 47.063332 -119.066491 103 35225ft 470kts
07-Nov-20 20:00 47.038171 -118.878268 103 35716ft 470kts
07-Nov-20 20:01 47.012695 -118.690323 103 36158ft 470kts
07-Nov-20 20:02 46.986920 -118.502607 103 36558ft 470kts
07-Nov-20 20:03 46.960859 -118.315213 103 36672ft 468kts
07-Nov-20 20:04 46.934813 -118.130263 104 36650ft 461kts
07-Nov-20 20:05 46.908716 -117.947288 105 36643ft 457kts
07-Nov-20 20:06 46.882581 -117.766163 105 36634ft 454kts
07-Nov-20 20:07 46.856238 -117.585774 105 36625ft 452kts
07-Nov-20 20:08 46.829780 -117.406697 105 36622ft 450kts
07-Nov-20 20:09 46.803133 -117.228387 106 36620ft 449kts
07-Nov-20 20:10 46.776242 -117.050469 106 36619ft 448kts
07-Nov-20 20:11 46.749123 -116.873047 106 36619ft 447kts
07-Nov-20 20:12 46.721768 -116.696045 107 36616ft 446kts
07-Nov-20 20:13 46.694290 -116.520161 107 36610ft 446kts
07-Nov-20 20:14 46.666455 -116.343918 107 36604ft 445kts
07-Nov-20 20:15 46.638522 -116.168926 107 36596ft 444kts
07-Nov-20 20:16 46.610400 -115.994591 107 36598ft 443kts
07-Nov-20 20:17 46.582046 -115.820643 108 36602ft 441kts
07-Nov-20 20:18 46.553461 -115.647073 108 36606ft 440kts
07-Nov-20 20:19 46.524722 -115.474342 109 36600ft 440kts
07-Nov-20 20:20 46.495717 -115.301747 109 36597ft 440kts
07-Nov-20 20:21 46.466404 -115.129056 109 36589ft 439kts
07-Nov-20 20:22 46.437012 -114.957597 110 36577ft 439kts
07-Nov-20 20:23 46.407305 -114.785982 110 36563ft 438kts
07-Nov-20 20:24 46.377419 -114.614990 110 36549ft 436kts
07-Nov-20 20:25 46.347483 -114.445345 111 36536ft 435kts
07-Nov-20 20:26 46.317249 -114.275623 111 36528ft 434kts
07-Nov-20 20:27 46.286920 -114.106955 111 36521ft 432kts
07-Nov-20 20:28 46.256510 -113.939381 111 36524ft 431kts
07-Nov-20 20:29 46.225809 -113.771774 112 35060ft 430kts
07-Nov-20 20:30 46.195448 -113.607481 113 33030ft 418kts
07-Nov-20 20:31 46.165363 -113.446244 113 31034ft 414kts
07-Nov-20 20:32 46.135169 -113.285814 113 29050ft 417kts
07-Nov-20 20:33 46.104258 -113.122879 112 27032ft 425kts
07-Nov-20 20:34 46.072973 -112.959312 112 25002ft 421kts
07-Nov-20 20:35 46.041797 -112.797760 111 22993ft 415kts
07-Nov-20 20:36 46.023981 -112.633521 100 20999ft 419kts
07-Nov-20 20:37 46.013947 -112.466646 101 18992ft 418kts
07-Nov-20 20:38 46.003093 -112.300155 100 17326ft 419kts
07-Nov-20 20:39 45.992164 -112.136423 100 15625ft 404kts
07-Nov-20 20:40 45.981424 -111.978621 99 13752ft 388kts
07-Nov-20 20:41 45.970991 -111.828381 98 11927ft 367kts
07-Nov-20 20:42 45.960952 -111.686416 97 10722ft 326kts
07-Nov-20 20:43 45.952527 -111.569430 97 10223ft 279kts
07-Nov-20 20:44 45.939746 -111.480524 105 9489ft 251kts
07-Nov-20 20:45 45.923249 -111.391833 104 8701ft 224kts
07-Nov-20 20:47 45.892847 -111.313982 133 7377ft 218kts
07-Nov-20 20:48 45.853268 -111.257324 134 6264ft 174kts
07-Nov-20 20:49 45.821034 -111.212421 135 5394ft 158kts
07-Nov-20 20:50 45.788864 -111.167581 137 4541ft 154kts
07-Nov-20 20:51 45.774868 -111.149666 220 4480ft 6kts
07-Nov-20 20:52 45.774267 -111.151294 304 4480ft 8kts
07-Nov-20 20:53 45.777049 -111.155220 315 4480ft 18kts
07-Nov-20 20:54 45.778137 -111.158315 287 4480ft 8kts
07-Nov-20 20:55 45.778702 -111.159242 309 4480ft 1kts
07-Nov-20 20:56 45.778557 -111.160015 229 4480ft 0kts
07-Nov-20 20:57 45.778557 -111.160015 229 4480ft 0kts
07-Nov-20 20:58 45.778557 -111.160015 229 4480ft 0kts
07-Nov-20 20:59 45.778557 -111.160015 229 4480ft 0kts
07-Nov-20 21:00 45.778557 -111.160015 229 4480ft 0kts
07-Nov-20 21:01 45.778557 -111.160015 229 4480ft 0kts
07-Nov-20 21:02 45.778557 -111.160015 229 4480ft 0kts
07-Nov-20 21:03 45.778557 -111.160015 229 4480ft 0kts
07-Nov-20 21:04 45.778557 -111.160015 229 4480ft 0kts
07-Nov-20 21:05 45.778557 -111.160015 229 4480ft 0kts

Navigation Log

Ident Type
Flight plan parsing failed, navigation log unavailable